createdAt,value
2019-01-23T00:00:44.967Z,-4.40
2019-01-23T00:03:14.632Z,-4.50
2019-01-23T00:05:43.595Z,-4.40
2019-01-23T00:08:12.802Z,-4.40
2019-01-23T00:10:41.652Z,-4.40
2019-01-23T00:13:11.319Z,-4.40
2019-01-23T00:15:41.616Z,-4.40
2019-01-23T00:18:11.252Z,-4.50
2019-01-23T00:20:41.340Z,-4.50
2019-01-23T00:23:10.251Z,-4.40
2019-01-23T00:25:39.179Z,-4.40
2019-01-23T00:28:08.760Z,-4.50
2019-01-23T00:30:37.655Z,-4.40
2019-01-23T00:33:07.054Z,-4.50
2019-01-23T00:35:36.587Z,-4.50
2019-01-23T00:38:06.060Z,-4.50
2019-01-23T00:40:35.459Z,-4.50
2019-01-23T00:43:04.621Z,-4.50
2019-01-23T00:45:33.929Z,-4.50
2019-01-23T00:48:02.802Z,-4.50
2019-01-23T00:50:33.075Z,-4.50
2019-01-23T00:53:02.684Z,-4.50
2019-01-23T00:55:32.291Z,-4.40
2019-01-23T00:58:01.483Z,-4.40
2019-01-23T01:00:31.763Z,-4.50
2019-01-23T01:03:00.703Z,-4.40
2019-01-23T01:05:29.928Z,-4.40
2019-01-23T01:07:59.187Z,-4.40
2019-01-23T01:10:28.082Z,-4.40
2019-01-23T01:12:57.075Z,-4.40
2019-01-23T01:15:26.859Z,-4.40
2019-01-23T01:17:55.804Z,-4.40
2019-01-23T01:20:25.291Z,-4.30
2019-01-23T01:22:54.592Z,-4.40
2019-01-23T01:25:24.404Z,-4.40
2019-01-23T01:27:54.019Z,-4.30
2019-01-23T01:30:23.952Z,-4.40
2019-01-23T01:32:53.632Z,-4.40
2019-01-23T01:35:23.503Z,-4.30
2019-01-23T01:37:52.751Z,-4.30
2019-01-23T01:40:21.718Z,-4.30
2019-01-23T01:42:50.936Z,-4.30
2019-01-23T01:45:20.226Z,-4.10
2019-01-23T01:47:49.149Z,-4.10
2019-01-23T01:50:20.427Z,-4.20
2019-01-23T01:52:49.721Z,-4.20
2019-01-23T01:55:18.711Z,-4.20
2019-01-23T01:57:48.359Z,-4.30
2019-01-23T02:00:19.851Z,-4.20
2019-01-23T02:02:49.982Z,-4.20
2019-01-23T02:05:19.077Z,-4.10
2019-01-23T02:07:48.747Z,-4.10
2019-01-23T02:10:19.691Z,-4.10
2019-01-23T02:12:49.591Z,-4.10
2019-01-23T02:15:19.787Z,-4.20
2019-01-23T02:17:49.255Z,-4.20
2019-01-23T02:20:23.812Z,-4.10
2019-01-23T02:22:53.083Z,-4.10
2019-01-23T02:25:22.231Z,-4.10
2019-01-23T02:27:51.357Z,-4.10
2019-01-23T02:30:22.337Z,-4.10
2019-01-23T02:32:51.547Z,-4.10
2019-01-23T02:35:20.531Z,-4.20
2019-01-23T02:37:49.396Z,-4.20
2019-01-23T02:40:20.745Z,-4.10
2019-01-23T02:42:50.384Z,-4.20
2019-01-23T02:45:20.179Z,-4.10
2019-01-23T02:47:49.077Z,-4.10
2019-01-23T02:50:18.776Z,-4.20
2019-01-23T02:52:48.364Z,-4.10
2019-01-23T02:55:17.325Z,-4.10
2019-01-23T02:57:46.889Z,-4.10
2019-01-23T03:00:17.704Z,-4.10
2019-01-23T03:02:47.123Z,-4.20
2019-01-23T03:05:17.674Z,-4.20
2019-01-23T03:07:47.159Z,-4.20
2019-01-23T03:10:18.661Z,-4.20
2019-01-23T03:12:48.163Z,-4.20
2019-01-23T03:15:17.873Z,-4.20
2019-01-23T03:17:47.187Z,-4.20
2019-01-23T03:20:18.043Z,-4.20
2019-01-23T03:22:47.408Z,-4.20
2019-01-23T03:25:36.063Z,-4.20
2019-01-23T03:28:04.835Z,-4.20
2019-01-23T03:30:33.993Z,-4.30
2019-01-23T03:33:03.253Z,-4.20
2019-01-23T03:35:32.143Z,-4.20
2019-01-23T03:38:01.659Z,-4.10
2019-01-23T03:40:31.356Z,-4.10
2019-01-23T03:43:00.642Z,-4.10
2019-01-23T03:45:30.263Z,-4.20
2019-01-23T03:47:59.218Z,-4.20
2019-01-23T03:50:28.872Z,-4.20
2019-01-23T03:52:57.875Z,-4.20
2019-01-23T03:55:27.849Z,-4.20
2019-01-23T03:57:56.742Z,-4.20
2019-01-23T04:00:26.069Z,-4.20
2019-01-23T04:02:55.251Z,-4.20
2019-01-23T04:05:25.024Z,-4.20
2019-01-23T04:07:54.210Z,-4.20
2019-01-23T04:10:23.515Z,-4.20
2019-01-23T04:12:53.048Z,-4.20
2019-01-23T04:15:23.262Z,-4.10
2019-01-23T04:17:52.240Z,-4.20
2019-01-23T04:20:23.163Z,-4.20
2019-01-23T04:22:52.428Z,-4.10
2019-01-23T04:25:22.140Z,-4.10
2019-01-23T04:27:51.284Z,-4.20
2019-01-23T04:30:22.488Z,-4.10
2019-01-23T04:32:51.881Z,-4.10
2019-01-23T04:35:20.894Z,-4.10
2019-01-23T04:37:49.849Z,-4.10
2019-01-23T04:40:18.811Z,-4.10
2019-01-23T04:42:48.360Z,-4.10
2019-01-23T04:45:18.044Z,-4.10
2019-01-23T04:47:46.916Z,-4.20
2019-01-23T04:50:17.029Z,-4.20
2019-01-23T04:53:23.860Z,-4.20
2019-01-23T04:55:53.677Z,-4.10
2019-01-23T04:58:23.179Z,-4.10
2019-01-23T05:00:52.102Z,-4.10
2019-01-23T05:03:20.908Z,-4.10
2019-01-23T05:05:50.199Z,-4.10
2019-01-23T05:08:19.787Z,-4.00
2019-01-23T05:10:49.784Z,-4.00
2019-01-23T05:13:19.288Z,-4.00
2019-01-23T05:15:48.084Z,-4.00
2019-01-23T05:18:17.579Z,-4.00
2019-01-23T05:20:46.451Z,-4.10
2019-01-23T05:23:16.216Z,-4.00
2019-01-23T05:25:45.893Z,-4.00
2019-01-23T05:28:15.083Z,-4.10
2019-01-23T05:30:44.329Z,-4.10
2019-01-23T05:33:13.592Z,-4.10
2019-01-23T05:35:42.587Z,-4.10
2019-01-23T05:38:12.087Z,-4.10
2019-01-23T05:40:41.588Z,-4.20
2019-01-23T05:43:10.687Z,-4.20
2019-01-23T05:45:40.188Z,-4.20
2019-01-23T05:48:09.091Z,-4.20
2019-01-23T05:50:38.902Z,-4.20
2019-01-23T05:53:08.610Z,-4.20
2019-01-23T05:55:37.883Z,-4.10
2019-01-23T05:58:07.133Z,-4.10
2019-01-23T06:00:36.152Z,-4.20
2019-01-23T06:03:05.634Z,-4.20
2019-01-23T06:05:34.932Z,-4.20
2019-01-23T06:08:04.719Z,-4.20
2019-01-23T06:10:33.643Z,-4.20
2019-01-23T06:13:04.781Z,-4.20
2019-01-23T06:15:34.667Z,-4.20
2019-01-23T06:18:03.895Z,-4.20
2019-01-23T06:20:33.160Z,-4.30
2019-01-23T06:23:03.080Z,-4.30
2019-01-23T06:25:32.119Z,-4.30
2019-01-23T06:28:01.491Z,-4.30
2019-01-23T06:30:30.970Z,-4.30
2019-01-23T06:33:00.707Z,-4.30
2019-01-23T06:35:29.675Z,-4.30
2019-01-23T06:37:59.587Z,-4.30
2019-01-23T06:40:28.575Z,-4.30
2019-01-23T06:42:57.907Z,-4.30
2019-01-23T06:45:27.852Z,-4.30
2019-01-23T06:47:57.315Z,-4.30
2019-01-23T06:50:26.816Z,-4.30
2019-01-23T06:52:56.519Z,-4.20
2019-01-23T06:55:25.751Z,-4.20
2019-01-23T06:57:54.671Z,-4.40
2019-01-23T07:00:25.459Z,-4.40
2019-01-23T07:02:55.492Z,-4.40
2019-01-23T07:05:25.009Z,-4.40
2019-01-23T07:07:54.373Z,-4.40
2019-01-23T07:10:25.700Z,-4.40
2019-01-23T07:12:55.324Z,-4.40
2019-01-23T07:15:24.244Z,-4.40
2019-01-23T07:17:53.124Z,-4.40
2019-01-23T07:20:24.019Z,-4.40
2019-01-23T07:22:53.595Z,-4.40
2019-01-23T07:25:22.520Z,-4.50
2019-01-23T07:27:51.497Z,-4.40
2019-01-23T07:30:29.314Z,-4.50
2019-01-23T07:32:58.604Z,-4.40
2019-01-23T07:35:27.568Z,-4.40
2019-01-23T07:37:57.230Z,-4.40
2019-01-23T07:40:27.045Z,-4.50
2019-01-23T07:42:56.019Z,-4.40
2019-01-23T07:45:25.005Z,-4.40
2019-01-23T07:47:54.532Z,-4.50
2019-01-23T07:50:23.732Z,-4.50
2019-01-23T07:52:53.511Z,-4.50
2019-01-23T07:55:23.051Z,-4.60
2019-01-23T07:57:52.832Z,-4.50
2019-01-23T08:00:23.084Z,-4.40
2019-01-23T08:02:52.835Z,-4.40
2019-01-23T08:05:24.072Z,-4.40
2019-01-23T08:07:53.343Z,-4.40
2019-01-23T08:10:22.655Z,-4.40
2019-01-23T08:12:52.241Z,-4.30
2019-01-23T08:15:26.519Z,-4.30
2019-01-23T08:17:55.867Z,-4.40
2019-01-23T08:20:25.506Z,-4.30
2019-01-23T08:22:54.700Z,-4.20
2019-01-23T08:25:24.066Z,-4.30
2019-01-23T08:27:53.368Z,-4.30
2019-01-23T08:30:23.352Z,-4.30
2019-01-23T08:32:52.683Z,-4.20
2019-01-23T08:35:22.505Z,-4.30
2019-01-23T08:37:52.100Z,-4.30
2019-01-23T08:40:21.401Z,-4.30
2019-01-23T08:42:50.675Z,-4.20
2019-01-23T08:45:20.214Z,-4.20
2019-01-23T08:47:49.088Z,-4.30
2019-01-23T08:50:23.914Z,-4.20
2019-01-23T08:52:53.131Z,-4.30
2019-01-23T08:55:22.976Z,-4.20
2019-01-23T08:57:52.195Z,-4.10
2019-01-23T09:00:21.163Z,-4.00
2019-01-23T09:02:50.023Z,-4.10
2019-01-23T09:05:19.423Z,-4.10
2019-01-23T09:07:48.923Z,-4.10
2019-01-23T09:10:20.060Z,-4.10
2019-01-23T09:12:49.023Z,-4.00
2019-01-23T09:15:18.776Z,-3.90
2019-01-23T09:17:47.748Z,-3.90
2019-01-23T09:20:17.900Z,-4.00
2019-01-23T09:22:47.602Z,-3.90
2019-01-23T09:25:18.107Z,-3.80
2019-01-23T09:27:47.419Z,-3.80
2019-01-23T09:30:39.909Z,-3.80
2019-01-23T09:33:41.327Z,-3.90
2019-01-23T09:36:37.859Z,-3.80
2019-01-23T09:39:57.947Z,-3.80
2019-01-23T09:43:20.839Z,-3.90
2019-01-23T09:46:11.769Z,-3.90
2019-01-23T09:49:27.919Z,-3.80
2019-01-23T09:52:47.128Z,-3.80
2019-01-23T09:55:16.211Z,-3.80
2019-01-23T09:57:48.960Z,-3.80
2019-01-23T10:00:21.336Z,-3.70
2019-01-23T10:02:50.307Z,-3.60
2019-01-23T10:05:19.524Z,-3.60
2019-01-23T10:07:49.129Z,-3.60
2019-01-23T10:10:18.559Z,-3.60
2019-01-23T10:12:48.241Z,-3.60
2019-01-23T10:15:38.376Z,-3.70
2019-01-23T10:18:07.364Z,-3.70
2019-01-23T10:20:36.522Z,-3.60
2019-01-23T10:23:05.803Z,-3.50
2019-01-23T10:25:35.024Z,-3.40
2019-01-23T10:28:04.837Z,-3.30
2019-01-23T10:30:33.963Z,-3.20
2019-01-23T10:33:03.948Z,-3.30
2019-01-23T10:35:33.255Z,-3.40
2019-01-23T10:38:02.599Z,-3.30
2019-01-23T10:40:32.143Z,-3.40
2019-01-23T10:43:04.437Z,-3.40
2019-01-23T10:45:33.391Z,-3.40
2019-01-23T10:48:02.731Z,-3.40
2019-01-23T10:50:32.128Z,-3.50
2019-01-23T10:53:02.879Z,-3.40
2019-01-23T10:55:32.868Z,-3.50
2019-01-23T10:58:03.904Z,-3.40
2019-01-23T11:00:33.713Z,-3.50
2019-01-23T11:03:09.863Z,-3.50
2019-01-23T11:05:33.779Z,-3.50
2019-01-23T11:08:03.057Z,-3.50
2019-01-23T11:10:32.219Z,-3.50
2019-01-23T11:13:01.561Z,-3.40
2019-01-23T11:15:31.103Z,-3.30
2019-01-23T11:18:00.183Z,-3.30
2019-01-23T11:20:29.083Z,-3.40
2019-01-23T11:22:57.972Z,-3.40
2019-01-23T11:25:27.539Z,-3.40
2019-01-23T11:27:57.232Z,-3.30
2019-01-23T11:30:26.996Z,-3.30
2019-01-23T11:32:55.839Z,-3.40
2019-01-23T11:35:24.752Z,-3.40
2019-01-23T11:37:53.677Z,-3.40
2019-01-23T11:40:30.316Z,-3.40
2019-01-23T11:42:59.671Z,-3.50
2019-01-23T11:45:29.215Z,-3.60
2019-01-23T11:47:58.272Z,-3.60
2019-01-23T11:50:27.524Z,-3.50
2019-01-23T11:52:56.699Z,-3.40
2019-01-23T11:55:25.574Z,-3.40
2019-01-23T11:57:54.464Z,-3.40
2019-01-23T12:00:25.419Z,-3.30
2019-01-23T12:02:54.746Z,-3.30
2019-01-23T12:05:23.971Z,-3.40
2019-01-23T12:07:53.833Z,-3.50
2019-01-23T12:10:23.680Z,-3.50
2019-01-23T12:12:53.455Z,-3.50
2019-01-23T12:15:23.936Z,-3.50
2019-01-23T12:17:52.908Z,-3.50
2019-01-23T12:20:22.760Z,-3.60
2019-01-23T12:22:51.616Z,-3.50
2019-01-23T12:25:20.499Z,-3.60
2019-01-23T12:27:49.763Z,-3.60
2019-01-23T12:30:30.420Z,-3.60
2019-01-23T12:32:59.699Z,-3.50
2019-01-23T12:35:29.239Z,-3.50
2019-01-23T12:37:58.743Z,-3.50
2019-01-23T12:40:27.638Z,-3.40
2019-01-23T12:42:57.428Z,-3.40
2019-01-23T12:45:28.183Z,-3.40
2019-01-23T12:47:57.415Z,-3.40
2019-01-23T12:50:28.608Z,-3.40
2019-01-23T12:52:58.193Z,-3.50
2019-01-23T12:55:27.147Z,-3.50
2019-01-23T12:57:56.778Z,-3.60
2019-01-23T13:00:28.447Z,-3.60
2019-01-23T13:02:57.903Z,-3.60
2019-01-23T13:05:28.327Z,-3.70
2019-01-23T13:07:57.922Z,-3.60
2019-01-23T13:10:27.796Z,-3.60
2019-01-23T13:12:56.865Z,-3.70
2019-01-23T13:15:27.168Z,-3.70
2019-01-23T13:17:56.280Z,-3.60
2019-01-23T13:20:25.757Z,-3.70
2019-01-23T13:22:56.313Z,-3.70
2019-01-23T13:25:27.220Z,-3.60
2019-01-23T13:27:58.259Z,-3.60
2019-01-23T13:30:27.560Z,-3.60
2019-01-23T13:32:56.864Z,-3.60
2019-01-23T13:35:28.657Z,-3.60
2019-01-23T13:37:58.022Z,-3.60
2019-01-23T13:40:32.898Z,-3.70
2019-01-23T13:43:02.063Z,-3.60
2019-01-23T13:45:31.323Z,-3.60
2019-01-23T13:48:00.544Z,-3.60
2019-01-23T13:50:29.748Z,-3.70
2019-01-23T13:52:59.460Z,-3.70
2019-01-23T13:55:28.664Z,-3.60
2019-01-23T13:57:57.957Z,-3.50
2019-01-23T14:00:30.424Z,-3.40
2019-01-23T14:03:00.037Z,-3.40
2019-01-23T14:05:29.340Z,-3.40
2019-01-23T14:07:58.691Z,-3.40
2019-01-23T14:10:28.349Z,-3.50
2019-01-23T14:12:57.886Z,-3.50
2019-01-23T14:15:32.586Z,-3.60
2019-01-23T14:18:01.564Z,-3.50
2019-01-23T14:20:30.772Z,-3.50
2019-01-23T14:23:00.381Z,-3.60
2019-01-23T14:25:29.332Z,-3.60
2019-01-23T14:27:58.239Z,-3.70
2019-01-23T14:30:30.262Z,-3.80
2019-01-23T14:32:59.155Z,-3.80
2019-01-23T14:35:28.767Z,-3.70
2019-01-23T14:38:00.767Z,-3.70
2019-01-23T14:40:28.733Z,-3.70
2019-01-23T14:42:57.867Z,-3.60
2019-01-23T14:45:27.150Z,-3.60
2019-01-23T14:47:56.579Z,-3.50
2019-01-23T14:50:26.223Z,-3.40
2019-01-23T14:52:55.571Z,-3.30
2019-01-23T14:55:24.550Z,-3.20
2019-01-23T14:57:53.819Z,-3.20
2019-01-23T15:00:25.060Z,-3.30
2019-01-23T15:02:54.027Z,-3.40
2019-01-23T15:05:22.975Z,-3.40
2019-01-23T15:07:52.281Z,-3.40
2019-01-23T15:10:23.388Z,-3.50
2019-01-23T15:12:53.480Z,-3.60
2019-01-23T15:15:22.401Z,-3.60
2019-01-23T15:17:51.438Z,-3.60
2019-01-23T15:20:23.104Z,-3.60
2019-01-23T15:22:52.322Z,-3.60
2019-01-23T15:25:23.635Z,-3.50
2019-01-23T15:27:52.507Z,-3.50
2019-01-23T15:30:21.738Z,-3.50
2019-01-23T15:32:52.402Z,-3.50
2019-01-23T15:35:22.060Z,-3.50
2019-01-23T15:37:50.975Z,-3.50
2019-01-23T15:40:22.340Z,-3.40
2019-01-23T15:42:51.122Z,-3.30
2019-01-23T15:45:21.281Z,-3.40
2019-01-23T15:47:50.483Z,-3.40
2019-01-23T15:50:21.828Z,-3.40
2019-01-23T15:52:51.193Z,-3.40
2019-01-23T15:55:22.352Z,-3.30
2019-01-23T15:57:51.606Z,-3.30
2019-01-23T16:00:25.627Z,-3.30
2019-01-23T16:02:54.716Z,-3.30
2019-01-23T16:05:23.940Z,-3.20
2019-01-23T16:07:52.888Z,-3.30
2019-01-23T16:10:23.788Z,-3.30
2019-01-23T16:12:53.032Z,-3.20
2019-01-23T16:15:23.503Z,-3.20
2019-01-23T16:17:52.864Z,-3.30
2019-01-23T16:20:22.083Z,-3.30
2019-01-23T16:22:51.087Z,-3.30
2019-01-23T16:25:20.078Z,-3.20
2019-01-23T16:27:49.756Z,-3.20
2019-01-23T16:30:34.559Z,-3.10
2019-01-23T16:33:04.571Z,-3.10
2019-01-23T16:35:38.537Z,-3.10
2019-01-23T16:38:06.997Z,-3.10
2019-01-23T16:40:36.327Z,-3.10
2019-01-23T16:43:05.857Z,-3.10
2019-01-23T16:45:34.824Z,-3.10
2019-01-23T16:48:04.871Z,-3.10
2019-01-23T16:50:34.176Z,-3.10
2019-01-23T16:53:03.197Z,-3.00
2019-01-23T16:55:32.536Z,-3.00
2019-01-23T16:58:01.837Z,-3.00
2019-01-23T17:00:31.032Z,-3.10
2019-01-23T17:03:01.052Z,-3.00
2019-01-23T17:05:32.640Z,-2.90
2019-01-23T17:08:04.294Z,-2.90
2019-01-23T17:10:33.258Z,-3.00
2019-01-23T17:13:02.107Z,-3.00
2019-01-23T17:15:31.795Z,-3.00
2019-01-23T17:18:01.177Z,-3.10
2019-01-23T17:20:45.300Z,-3.10
2019-01-23T17:23:14.790Z,-3.10
2019-01-23T17:25:44.159Z,-3.10
2019-01-23T17:28:14.175Z,-3.00
2019-01-23T17:30:43.542Z,-3.00
2019-01-23T17:33:12.912Z,-3.00
2019-01-23T17:35:42.228Z,-3.00
2019-01-23T17:38:11.563Z,-3.00
2019-01-23T17:40:41.551Z,-3.00
2019-01-23T17:43:11.972Z,-3.10
2019-01-23T17:45:41.347Z,-3.00
2019-01-23T17:48:12.275Z,-2.90
2019-01-23T17:50:41.921Z,-2.80
2019-01-23T17:53:11.323Z,-2.80
2019-01-23T17:55:40.980Z,-2.70
2019-01-23T17:58:14.398Z,-2.60
2019-01-23T18:00:59.596Z,-2.40
2019-01-23T18:03:28.895Z,-2.30
2019-01-23T18:05:58.202Z,-2.30
2019-01-23T18:08:27.553Z,-2.30
2019-01-23T18:10:56.463Z,-2.50
2019-01-23T18:13:25.451Z,-2.60
2019-01-23T18:15:56.408Z,-2.70
2019-01-23T18:18:25.641Z,-2.80
2019-01-23T18:20:54.917Z,-2.80
2019-01-23T18:23:24.677Z,-2.80
2019-01-23T18:25:53.932Z,-2.80
2019-01-23T18:28:23.003Z,-2.80
2019-01-23T18:31:00.051Z,-2.70
2019-01-23T18:33:37.635Z,-2.80
2019-01-23T18:36:51.694Z,-2.80
2019-01-23T18:39:48.780Z,-2.70
2019-01-23T18:42:34.915Z,-2.60
2019-01-23T18:45:15.908Z,-2.50
2019-01-23T18:48:13.060Z,-2.50
2019-01-23T18:51:13.351Z,-2.30
2019-01-23T18:53:42.856Z,-2.30
2019-01-23T18:56:12.468Z,-2.20
2019-01-23T18:58:42.012Z,-2.20
2019-01-23T19:01:10.980Z,-2.20
2019-01-23T19:03:40.568Z,-2.20
2019-01-23T19:06:09.909Z,-2.10
2019-01-23T19:08:39.772Z,-2.10
2019-01-23T19:11:09.085Z,-2.10
2019-01-23T19:13:38.693Z,-2.00
2019-01-23T19:16:08.885Z,-2.00
2019-01-23T19:18:38.829Z,-2.00
2019-01-23T19:21:08.536Z,-2.10
2019-01-23T19:23:37.794Z,-2.10
2019-01-23T19:26:08.170Z,-2.10
2019-01-23T19:28:37.569Z,-2.20
2019-01-23T19:31:06.734Z,-2.40
2019-01-23T19:33:36.165Z,-2.40
2019-01-23T19:36:05.268Z,-2.50
2019-01-23T19:38:34.565Z,-2.50
2019-01-23T19:41:03.864Z,-2.50
2019-01-23T19:43:32.820Z,-2.50
2019-01-23T19:46:02.372Z,-2.60
2019-01-23T19:48:31.350Z,-2.70
2019-01-23T19:51:03.153Z,-2.70
2019-01-23T19:53:33.024Z,-2.70
2019-01-23T19:56:02.632Z,-2.90
2019-01-23T19:58:31.930Z,-3.00
2019-01-23T20:01:05.532Z,-3.10
2019-01-23T20:03:34.831Z,-3.20
2019-01-23T20:06:06.042Z,-3.20
2019-01-23T20:08:35.267Z,-3.20
2019-01-23T20:11:04.335Z,-3.20
2019-01-23T20:13:33.367Z,-3.20
2019-01-23T20:16:04.954Z,-3.20
2019-01-23T20:18:34.030Z,-3.20
2019-01-23T20:21:03.385Z,-3.20
2019-01-23T20:23:32.647Z,-3.20
2019-01-23T20:26:01.908Z,-3.20
2019-01-23T20:28:31.416Z,-3.20
2019-01-23T20:31:00.920Z,-3.30
2019-01-23T20:33:30.152Z,-3.40
2019-01-23T20:36:00.045Z,-3.40
2019-01-23T20:38:29.187Z,-3.40
2019-01-23T20:40:58.552Z,-3.40
2019-01-23T20:43:28.031Z,-3.40
2019-01-23T20:45:57.704Z,-3.40
2019-01-23T20:48:26.849Z,-3.40
2019-01-23T20:50:56.247Z,-3.40
2019-01-23T20:53:25.228Z,-3.40
2019-01-23T20:56:13.601Z,-3.40
2019-01-23T20:58:42.815Z,-3.40
2019-01-23T21:01:12.215Z,-3.50
2019-01-23T21:03:41.484Z,-3.50
2019-01-23T21:06:11.236Z,-3.50
2019-01-23T21:08:40.496Z,-3.50
2019-01-23T21:11:10.041Z,-3.50
2019-01-23T21:13:39.346Z,-3.50
2019-01-23T21:16:08.604Z,-3.50
2019-01-23T21:18:38.263Z,-3.60
2019-01-23T21:21:07.916Z,-3.60
2019-01-23T21:23:37.011Z,-3.60
2019-01-23T21:26:06.170Z,-3.70
2019-01-23T21:28:35.145Z,-3.70
2019-01-23T21:31:04.228Z,-3.70
2019-01-23T21:33:33.525Z,-3.60
2019-01-23T21:36:02.716Z,-3.60
2019-01-23T21:38:32.026Z,-3.60
2019-01-23T21:41:03.583Z,-3.60
2019-01-23T21:43:32.558Z,-3.60
2019-01-23T21:46:04.635Z,-3.60
2019-01-23T21:48:33.694Z,-3.60
2019-01-23T21:51:03.004Z,-3.70
2019-01-23T21:53:32.912Z,-3.70
2019-01-23T21:56:02.225Z,-3.80
2019-01-23T21:58:31.571Z,-3.80
2019-01-23T22:01:01.531Z,-3.80
2019-01-23T22:03:30.421Z,-3.60
2019-01-23T22:05:59.725Z,-3.40
2019-01-23T22:08:28.632Z,-3.20
2019-01-23T22:10:58.223Z,-3.30
2019-01-23T22:13:27.827Z,-3.30
2019-01-23T22:15:57.023Z,-3.40
2019-01-23T22:18:26.319Z,-3.60
2019-01-23T22:20:55.436Z,-3.80
2019-01-23T22:23:24.671Z,-3.90
2019-01-23T22:25:53.921Z,-3.90
2019-01-23T22:28:22.844Z,-4.00
2019-01-23T22:30:51.644Z,-4.00
2019-01-23T22:33:21.206Z,-4.00
2019-01-23T22:35:50.110Z,-3.90
2019-01-23T22:38:19.243Z,-3.90
2019-01-23T22:40:48.385Z,-3.90
2019-01-23T22:43:17.819Z,-4.00
2019-01-23T22:45:47.516Z,-4.10
2019-01-23T22:48:17.111Z,-4.10
2019-01-23T22:50:46.713Z,-4.10
2019-01-23T22:53:15.913Z,-4.00
2019-01-23T22:55:45.145Z,-4.00
2019-01-23T22:58:33.556Z,-4.00
2019-01-23T23:01:28.550Z,-4.00
2019-01-23T23:04:03.216Z,-4.10
2019-01-23T23:06:29.421Z,-4.10
2019-01-23T23:08:58.312Z,-4.10
2019-01-23T23:11:27.926Z,-4.10
2019-01-23T23:13:56.890Z,-4.10
2019-01-23T23:16:26.512Z,-4.10
2019-01-23T23:18:55.443Z,-4.20
2019-01-23T23:21:24.333Z,-4.30
2019-01-23T23:23:54.548Z,-4.20
2019-01-23T23:26:23.747Z,-4.20
2019-01-23T23:28:52.707Z,-4.20
2019-01-23T23:31:21.879Z,-4.20
2019-01-23T23:33:52.507Z,-4.30
2019-01-23T23:36:21.779Z,-4.30
2019-01-23T23:38:51.032Z,-4.30
2019-01-23T23:41:20.227Z,-4.20
2019-01-23T23:43:49.636Z,-4.30
2019-01-23T23:46:18.605Z,-4.30
2019-01-23T23:48:48.359Z,-4.30
2019-01-23T23:51:17.739Z,-4.30
2019-01-23T23:53:46.663Z,-4.30
2019-01-23T23:56:15.516Z,-4.30
2019-01-23T23:58:44.559Z,-4.30
